createdAt,value
2019-06-15T00:01:48.286Z,3.27
2019-06-15T00:04:45.120Z,3.30
2019-06-15T00:07:50.840Z,3.90
2019-06-15T00:10:43.195Z,3.40
2019-06-15T00:13:51.295Z,4.30
2019-06-15T00:16:59.390Z,3.80
2019-06-15T00:19:56.686Z,3.67
2019-06-15T00:23:05.238Z,3.80
2019-06-15T00:26:05.394Z,4.67
2019-06-15T00:29:07.527Z,4.83
2019-06-15T00:32:26.352Z,4.60
2019-06-15T00:35:32.332Z,4.37
2019-06-15T00:38:45.308Z,4.30
2019-06-15T00:41:41.681Z,3.80
2019-06-15T00:44:50.952Z,4.03
2019-06-15T00:47:53.301Z,4.23
2019-06-15T00:51:00.078Z,4.60
2019-06-15T00:54:05.940Z,3.80
2019-06-15T00:57:06.792Z,3.77
2019-06-15T01:00:09.759Z,3.33
2019-06-15T01:03:01.533Z,2.67
2019-06-15T01:05:46.985Z,2.80
2019-06-15T01:08:40.127Z,3.17
2019-06-15T01:11:31.658Z,2.90
2019-06-15T01:14:25.368Z,3.77
2019-06-15T01:17:19.483Z,3.10
2019-06-15T01:20:24.619Z,3.97
2019-06-15T01:23:32.323Z,3.47
2019-06-15T01:26:41.578Z,3.10
2019-06-15T01:29:44.470Z,2.50
2019-06-15T01:32:48.386Z,2.90
2019-06-15T01:35:53.368Z,2.90
2019-06-15T01:38:55.872Z,3.00
2019-06-15T01:42:06.162Z,3.30
2019-06-15T01:45:10.817Z,3.87
2019-06-15T01:48:24.713Z,3.83
2019-06-15T01:51:32.248Z,3.20
2019-06-15T01:54:49.514Z,3.30
2019-06-15T01:57:26.806Z,3.20
2019-06-15T01:59:58.029Z,3.63
2019-06-15T02:02:29.552Z,3.60
2019-06-15T02:05:01.048Z,4.00
2019-06-15T02:07:32.397Z,4.27
2019-06-15T02:10:03.580Z,4.20
2019-06-15T02:12:34.842Z,4.43
2019-06-15T02:15:06.420Z,4.33
2019-06-15T02:17:38.061Z,4.30
2019-06-15T02:20:09.499Z,4.97
2019-06-15T02:22:43.600Z,4.93
2019-06-15T02:25:34.824Z,4.73
2019-06-15T02:27:56.119Z,4.47
2019-06-15T02:30:31.177Z,4.07
2019-06-15T02:33:02.786Z,5.17
2019-06-15T02:35:34.042Z,5.00
2019-06-15T02:38:05.352Z,5.00
2019-06-15T02:40:36.614Z,5.63
2019-06-15T02:43:08.352Z,6.00
2019-06-15T02:45:39.673Z,6.20
2019-06-15T02:48:11.472Z,7.53
2019-06-15T02:50:43.442Z,7.87
2019-06-15T02:53:14.815Z,7.40
2019-06-15T02:55:50.641Z,6.57
2019-06-15T02:58:19.735Z,6.00
2019-06-15T03:01:07.765Z,5.47
2019-06-15T03:03:38.973Z,5.07
2019-06-15T03:06:10.558Z,5.47
2019-06-15T03:08:42.153Z,5.53
2019-06-15T03:11:13.630Z,6.00
2019-06-15T03:13:45.131Z,6.63
2019-06-15T03:16:16.383Z,7.80
2019-06-15T03:18:47.677Z,8.03
2019-06-15T03:21:18.957Z,8.00
2019-06-15T03:23:50.549Z,7.07
2019-06-15T03:26:23.134Z,6.73
2019-06-15T03:28:54.600Z,6.90
2019-06-15T03:31:25.918Z,6.83
2019-06-15T03:33:57.238Z,6.67
2019-06-15T03:36:28.609Z,6.60
2019-06-15T03:38:59.871Z,7.03
2019-06-15T03:41:31.221Z,6.73
2019-06-15T03:44:03.287Z,7.00
2019-06-15T03:46:34.555Z,7.77
2019-06-15T03:49:05.912Z,7.87
2019-06-15T03:51:37.632Z,8.57
2019-06-15T03:54:09.268Z,8.37
2019-06-15T03:56:40.792Z,8.90
2019-06-15T03:59:12.084Z,9.60
2019-06-15T04:01:48.568Z,9.13
2019-06-15T04:04:20.097Z,9.73
2019-06-15T04:06:51.513Z,10.70
2019-06-15T04:09:23.012Z,9.80
2019-06-15T04:11:54.286Z,10.47
2019-06-15T04:14:25.748Z,11.43
2019-06-15T04:16:57.109Z,11.17
2019-06-15T04:19:28.574Z,11.13
2019-06-15T04:22:00.031Z,12.00
2019-06-15T04:24:31.288Z,11.30
2019-06-15T04:27:02.758Z,11.57
2019-06-15T04:29:34.090Z,11.20
2019-06-15T04:32:05.684Z,12.73
2019-06-15T04:34:37.184Z,13.30
2019-06-15T04:37:08.546Z,14.80
2019-06-15T04:39:39.893Z,14.77
2019-06-15T04:42:11.236Z,15.57
2019-06-15T04:44:42.593Z,16.87
2019-06-15T04:47:13.881Z,19.00
2019-06-15T04:49:45.405Z,19.13
2019-06-15T04:52:16.911Z,19.43
2019-06-15T04:54:48.398Z,18.87
2019-06-15T04:57:20.122Z,18.77
2019-06-15T04:59:51.660Z,17.97
2019-06-15T05:02:23.211Z,17.70
2019-06-15T05:04:54.830Z,16.67
2019-06-15T05:07:26.220Z,13.90
2019-06-15T05:09:58.028Z,13.20
2019-06-15T05:12:29.343Z,13.30
2019-06-15T05:15:00.978Z,13.70
2019-06-15T05:17:32.516Z,13.90
2019-06-15T05:20:03.987Z,13.47
2019-06-15T05:22:35.319Z,12.87
2019-06-15T05:25:06.866Z,13.30
2019-06-15T05:27:38.169Z,13.13
2019-06-15T05:30:10.265Z,13.60
2019-06-15T05:32:41.663Z,12.93
2019-06-15T05:35:13.527Z,12.93
2019-06-15T05:37:45.322Z,13.57
2019-06-15T05:40:16.897Z,12.10
2019-06-15T05:42:48.896Z,12.23
2019-06-15T05:45:20.688Z,11.53
2019-06-15T05:47:52.073Z,10.30
2019-06-15T05:50:23.394Z,10.50
2019-06-15T05:52:55.055Z,10.77
2019-06-15T05:55:26.717Z,11.00
2019-06-15T05:57:58.330Z,10.40
2019-06-15T06:00:30.080Z,9.87
2019-06-15T06:03:01.629Z,11.07
2019-06-15T06:05:33.943Z,8.87
2019-06-15T06:08:05.261Z,7.73
2019-06-15T06:10:36.687Z,8.03
2019-06-15T06:13:08.056Z,8.37
2019-06-15T06:15:39.765Z,7.70
2019-06-15T06:18:11.207Z,7.37
2019-06-15T06:20:42.521Z,7.40
2019-06-15T06:23:13.894Z,7.47
2019-06-15T06:25:47.725Z,6.63
2019-06-15T06:28:19.136Z,6.80
2019-06-15T06:30:50.456Z,6.53
2019-06-15T06:33:21.865Z,6.03
2019-06-15T06:35:53.252Z,6.17
2019-06-15T06:38:24.965Z,6.90
2019-06-15T06:40:56.340Z,6.30
2019-06-15T06:43:28.087Z,6.30
2019-06-15T06:46:00.132Z,5.73
2019-06-15T06:48:31.535Z,6.27
2019-06-15T06:51:02.966Z,6.20
2019-06-15T06:53:34.444Z,5.83
2019-06-15T06:56:06.132Z,5.97
2019-06-15T06:58:37.539Z,5.50
2019-06-15T07:01:09.222Z,6.83
2019-06-15T07:03:40.668Z,5.27
2019-06-15T07:06:12.070Z,5.37
2019-06-15T07:08:43.671Z,5.67
2019-06-15T07:11:15.047Z,5.77
2019-06-15T07:13:46.536Z,5.57
2019-06-15T07:16:18.074Z,5.30
2019-06-15T07:18:49.735Z,4.97
2019-06-15T07:21:21.160Z,5.17
2019-06-15T07:23:52.607Z,5.37
2019-06-15T07:26:23.924Z,5.10
2019-06-15T07:28:55.525Z,5.10
2019-06-15T07:31:26.963Z,5.30
2019-06-15T07:33:58.278Z,5.80
2019-06-15T07:36:29.643Z,5.83
2019-06-15T07:39:01.629Z,5.87
2019-06-15T07:41:34.668Z,5.60
2019-06-15T07:44:06.076Z,5.63
2019-06-15T07:46:37.420Z,5.40
2019-06-15T07:49:08.941Z,5.93
2019-06-15T07:51:40.476Z,6.07
2019-06-15T07:54:12.206Z,6.07
2019-06-15T07:56:43.943Z,5.90
2019-06-15T07:59:15.847Z,5.50
2019-06-15T08:01:47.131Z,5.57
2019-06-15T08:04:18.619Z,5.83
2019-06-15T08:06:50.022Z,6.43
2019-06-15T08:09:21.414Z,6.70
2019-06-15T08:11:52.920Z,6.30
2019-06-15T08:14:24.382Z,6.80
2019-06-15T08:16:55.763Z,6.90
2019-06-15T08:19:27.139Z,6.23
2019-06-15T08:21:58.465Z,7.37
2019-06-15T08:24:30.141Z,7.80
2019-06-15T08:27:08.720Z,7.47
2019-06-15T08:29:41.523Z,7.57
2019-06-15T08:32:13.265Z,8.37
2019-06-15T08:34:44.624Z,8.30
2019-06-15T08:37:16.372Z,7.50
2019-06-15T08:39:47.920Z,7.27
2019-06-15T08:42:19.485Z,7.60
2019-06-15T08:44:51.113Z,7.23
2019-06-15T08:47:22.806Z,6.73
2019-06-15T08:49:54.115Z,7.03
2019-06-15T08:52:25.505Z,7.83
2019-06-15T08:54:56.869Z,7.60
2019-06-15T08:57:28.469Z,7.63
2019-06-15T08:59:59.974Z,7.70
2019-06-15T09:02:31.450Z,8.60
2019-06-15T09:05:02.762Z,8.00
2019-06-15T09:07:35.402Z,6.93
2019-06-15T09:10:07.174Z,6.47
2019-06-15T09:12:38.833Z,7.17
2019-06-15T09:15:11.122Z,7.83
2019-06-15T09:17:42.553Z,7.67
2019-06-15T09:20:14.259Z,8.60
2019-06-15T09:22:45.580Z,8.07
2019-06-15T09:25:16.910Z,8.20
2019-06-15T09:27:48.249Z,6.87
2019-06-15T09:30:19.757Z,5.83
2019-06-15T09:32:52.447Z,6.00
2019-06-15T09:35:23.751Z,6.07
2019-06-15T09:37:55.323Z,6.00
2019-06-15T09:40:26.781Z,5.53
2019-06-15T09:42:58.254Z,4.53
2019-06-15T09:45:32.801Z,4.73
2019-06-15T09:48:02.818Z,4.97
2019-06-15T09:50:34.274Z,5.03
2019-06-15T09:53:05.873Z,5.27
2019-06-15T09:55:37.377Z,4.50
2019-06-15T09:58:08.932Z,4.57
2019-06-15T10:00:40.549Z,3.93
2019-06-15T10:03:11.781Z,4.40
2019-06-15T10:05:43.424Z,4.70
2019-06-15T10:08:14.958Z,4.93
2019-06-15T10:10:46.833Z,4.67
2019-06-15T10:13:18.191Z,4.60
2019-06-15T10:15:49.746Z,4.80
2019-06-15T10:18:21.069Z,4.70
2019-06-15T10:20:52.705Z,4.97
2019-06-15T10:23:24.151Z,5.10
2019-06-15T10:25:55.518Z,5.50
2019-06-15T10:28:26.917Z,5.43
2019-06-15T10:31:00.768Z,5.43
2019-06-15T10:33:31.475Z,4.90
2019-06-15T10:36:02.803Z,5.00
2019-06-15T10:38:34.238Z,4.20
2019-06-15T10:41:06.146Z,4.47
2019-06-15T10:43:37.480Z,4.67
2019-06-15T10:46:09.128Z,3.80
2019-06-15T10:48:40.523Z,3.60
2019-06-15T10:51:11.796Z,3.57
2019-06-15T10:53:43.620Z,3.50
2019-06-15T10:56:15.028Z,3.43
2019-06-15T10:58:46.953Z,3.10
2019-06-15T11:01:18.844Z,3.30
2019-06-15T11:03:50.133Z,3.37
2019-06-15T11:06:22.479Z,3.27
2019-06-15T11:08:53.771Z,3.27
2019-06-15T11:11:25.332Z,3.30
2019-06-15T11:13:57.017Z,2.50
2019-06-15T11:16:28.994Z,2.37
2019-06-15T11:19:00.587Z,2.60
2019-06-15T11:21:32.000Z,2.63
2019-06-15T11:24:03.324Z,2.90
2019-06-15T11:26:34.675Z,2.93
2019-06-15T11:29:05.925Z,3.03
2019-06-15T11:31:37.230Z,2.70
2019-06-15T11:34:08.542Z,2.70
2019-06-15T11:36:40.897Z,2.50
2019-06-15T11:39:12.399Z,2.40
2019-06-15T11:41:44.053Z,2.57
2019-06-15T11:44:17.124Z,2.30
2019-06-15T11:46:48.475Z,2.37
2019-06-15T11:49:20.111Z,2.13
2019-06-15T11:51:51.388Z,2.10
2019-06-15T11:54:23.087Z,2.70
2019-06-15T11:56:54.343Z,2.50
2019-06-15T11:59:25.894Z,3.00
2019-06-15T12:01:57.380Z,2.60
2019-06-15T12:04:29.080Z,2.30
2019-06-15T12:07:00.473Z,2.20
2019-06-15T12:09:32.194Z,2.90
2019-06-15T12:12:03.524Z,2.13
2019-06-15T12:14:34.867Z,2.33
2019-06-15T12:17:06.207Z,2.00
2019-06-15T12:19:37.914Z,2.40
2019-06-15T12:22:09.587Z,2.40
2019-06-15T12:24:41.087Z,2.50
2019-06-15T12:27:12.438Z,2.53
2019-06-15T12:29:44.136Z,2.60
2019-06-15T12:32:15.423Z,2.70
2019-06-15T12:34:47.106Z,3.30
2019-06-15T12:37:18.514Z,2.90
2019-06-15T12:39:49.910Z,2.77
2019-06-15T12:42:21.173Z,3.00
2019-06-15T12:44:52.559Z,3.13
2019-06-15T12:47:24.191Z,3.17
2019-06-15T12:49:55.463Z,3.03
2019-06-15T12:52:26.978Z,3.50
2019-06-15T12:54:58.371Z,3.33
2019-06-15T12:57:30.118Z,3.73
2019-06-15T13:00:01.431Z,4.17
2019-06-15T13:02:33.253Z,3.80
2019-06-15T13:05:05.504Z,4.07
2019-06-15T13:07:37.319Z,4.20
2019-06-15T13:10:09.551Z,4.43
2019-06-15T13:12:40.825Z,3.87
2019-06-15T13:15:12.756Z,3.87
2019-06-15T13:17:44.227Z,4.40
2019-06-15T13:20:15.849Z,3.90
2019-06-15T13:22:47.497Z,3.87
2019-06-15T13:25:18.769Z,4.47
2019-06-15T13:27:50.496Z,4.43
2019-06-15T13:30:22.577Z,4.13
2019-06-15T13:32:54.064Z,4.40
2019-06-15T13:35:25.418Z,4.33
2019-06-15T13:37:57.081Z,4.90
2019-06-15T13:40:28.619Z,4.10
2019-06-15T13:43:00.295Z,4.40
2019-06-15T13:45:32.014Z,4.17
2019-06-15T13:48:04.096Z,4.03
2019-06-15T13:50:35.770Z,3.83
2019-06-15T13:53:07.151Z,3.67
2019-06-15T13:55:38.593Z,3.80
2019-06-15T13:58:09.891Z,3.50
2019-06-15T14:00:41.374Z,2.90
2019-06-15T14:03:12.834Z,3.73
2019-06-15T14:05:44.275Z,3.90
2019-06-15T14:08:15.722Z,3.60
2019-06-15T14:10:47.391Z,4.07
2019-06-15T14:13:18.769Z,4.37
2019-06-15T14:15:50.473Z,3.97
2019-06-15T14:18:22.157Z,3.57
2019-06-15T14:20:53.677Z,3.80
2019-06-15T14:23:24.989Z,4.47
2019-06-15T14:25:56.416Z,4.87
2019-06-15T14:28:27.934Z,4.20
2019-06-15T14:30:59.927Z,3.40
2019-06-15T14:33:31.313Z,3.77
2019-06-15T14:36:02.710Z,3.60
2019-06-15T14:38:34.155Z,4.20
2019-06-15T14:41:05.441Z,4.10
2019-06-15T14:43:37.133Z,4.17
2019-06-15T14:46:09.019Z,3.63
2019-06-15T14:48:41.099Z,4.17
2019-06-15T14:51:12.826Z,3.97
2019-06-15T14:53:49.889Z,3.93
2019-06-15T14:56:17.216Z,4.30
2019-06-15T14:58:48.859Z,3.50
2019-06-15T15:01:21.455Z,3.20
2019-06-15T15:03:53.672Z,2.53
2019-06-15T15:06:26.074Z,2.10
2019-06-15T15:08:57.686Z,1.90
2019-06-15T15:11:28.970Z,2.30
2019-06-15T15:14:00.795Z,2.17
2019-06-15T15:16:32.179Z,1.87
2019-06-15T15:19:05.992Z,2.20
2019-06-15T15:21:37.220Z,1.90
2019-06-15T15:24:08.565Z,1.77
2019-06-15T15:26:40.050Z,2.30
2019-06-15T15:29:11.489Z,2.10
2019-06-15T15:31:42.912Z,2.07
2019-06-15T15:34:17.134Z,1.87
2019-06-15T15:36:47.817Z,2.27
2019-06-15T15:39:19.114Z,1.77
2019-06-15T15:41:50.624Z,2.17
2019-06-15T15:44:22.590Z,2.03
2019-06-15T15:46:56.755Z,1.80
2019-06-15T15:49:27.386Z,1.77
2019-06-15T15:51:58.847Z,1.77
2019-06-15T15:54:30.183Z,1.97
2019-06-15T15:57:01.527Z,1.83
2019-06-15T15:59:33.260Z,2.13
2019-06-15T16:02:06.668Z,1.90
2019-06-15T16:04:37.773Z,1.60
2019-06-15T16:07:09.346Z,1.70
2019-06-15T16:09:41.438Z,1.40
2019-06-15T16:12:12.794Z,1.40
2019-06-15T16:14:44.503Z,1.60
2019-06-15T16:17:15.905Z,1.63
2019-06-15T16:19:47.456Z,1.57
2019-06-15T16:22:18.822Z,1.43
2019-06-15T16:24:50.126Z,1.47
2019-06-15T16:27:22.027Z,1.40
2019-06-15T16:29:53.761Z,1.77
2019-06-15T16:32:26.355Z,1.43
2019-06-15T16:34:58.142Z,1.20
2019-06-15T16:37:29.827Z,1.40
2019-06-15T16:40:01.248Z,1.80
2019-06-15T16:42:32.729Z,1.57
2019-06-15T16:45:06.859Z,1.33
2019-06-15T16:47:38.026Z,1.73
2019-06-15T16:50:09.674Z,1.60
2019-06-15T16:52:41.083Z,1.80
2019-06-15T16:55:12.267Z,1.57
2019-06-15T16:57:46.469Z,1.60
2019-06-15T17:00:20.204Z,1.70
2019-06-15T17:02:51.818Z,1.53
2019-06-15T17:05:27.203Z,1.60
2019-06-15T17:07:57.407Z,1.23
2019-06-15T17:10:39.771Z,1.50
2019-06-15T17:13:12.195Z,1.43
2019-06-15T17:15:43.501Z,4.70
2019-06-15T17:18:15.177Z,1.83
2019-06-15T17:20:49.468Z,1.60
2019-06-15T17:23:21.456Z,1.33
2019-06-15T17:25:52.909Z,1.63
2019-06-15T17:28:25.945Z,1.60
2019-06-15T17:30:57.555Z,1.50
2019-06-15T17:33:37.663Z,1.70
2019-06-15T17:36:03.479Z,1.80
2019-06-15T17:38:36.979Z,4.80
2019-06-15T17:41:08.029Z,2.37
2019-06-15T17:43:40.072Z,5.67
2019-06-15T17:46:11.437Z,2.13
2019-06-15T17:48:42.888Z,1.90
2019-06-15T17:51:16.039Z,6.13
2019-06-15T17:53:47.633Z,4.20
2019-06-15T17:56:19.193Z,2.03
2019-06-15T17:58:51.224Z,1.70
2019-06-15T18:01:22.595Z,1.30
2019-06-15T18:03:55.389Z,1.40
2019-06-15T18:06:27.098Z,1.70
2019-06-15T18:08:58.385Z,1.50
2019-06-15T18:11:29.738Z,1.43
2019-06-15T18:14:01.324Z,1.90
2019-06-15T18:16:32.665Z,1.53
2019-06-15T18:19:06.793Z,3.73
2019-06-15T18:21:40.931Z,2.20
2019-06-15T18:24:10.526Z,2.50
2019-06-15T18:26:41.828Z,2.50
2019-06-15T18:29:13.150Z,2.40
2019-06-15T18:31:44.492Z,1.70
2019-06-15T18:34:16.991Z,1.80
2019-06-15T18:36:48.398Z,2.07
2019-06-15T18:39:19.814Z,2.27
2019-06-15T18:41:51.179Z,2.10
2019-06-15T18:44:22.781Z,2.30
2019-06-15T18:46:56.429Z,2.00
2019-06-15T18:49:31.738Z,1.70
2019-06-15T18:52:06.057Z,1.87
2019-06-15T18:54:36.516Z,1.83
2019-06-15T18:57:09.352Z,2.50
2019-06-15T18:59:43.237Z,2.30
2019-06-15T19:02:16.139Z,2.20
2019-06-15T19:04:49.691Z,2.50
2019-06-15T19:07:20.769Z,2.50
2019-06-15T19:09:52.363Z,2.47
2019-06-15T19:12:26.217Z,2.37
2019-06-15T19:14:56.936Z,2.63
2019-06-15T19:17:28.406Z,2.23
2019-06-15T19:19:59.824Z,2.10
2019-06-15T19:22:31.179Z,2.17
2019-06-15T19:25:02.825Z,2.07
2019-06-15T19:27:36.390Z,2.40
2019-06-15T19:30:07.499Z,2.13
2019-06-15T19:32:38.979Z,2.10
2019-06-15T19:35:10.739Z,1.90
2019-06-15T19:37:42.124Z,2.00
2019-06-15T19:40:16.025Z,2.70
2019-06-15T19:42:46.907Z,2.80
2019-06-15T19:45:20.754Z,2.37
2019-06-15T19:47:52.305Z,2.70
2019-06-15T19:50:26.734Z,2.77
2019-06-15T19:52:58.385Z,3.00
2019-06-15T19:55:30.243Z,3.10
2019-06-15T19:58:01.679Z,3.03
2019-06-15T20:00:33.323Z,3.47
2019-06-15T20:03:07.081Z,4.93
2019-06-15T20:05:37.742Z,4.40
2019-06-15T20:08:09.900Z,4.43
2019-06-15T20:10:41.173Z,4.17
2019-06-15T20:13:14.103Z,4.37
2019-06-15T20:15:46.995Z,4.23
2019-06-15T20:18:18.237Z,4.67
2019-06-15T20:20:49.541Z,5.20
2019-06-15T20:23:20.809Z,5.10
2019-06-15T20:25:52.194Z,5.13
2019-06-15T20:28:23.539Z,4.60
2019-06-15T20:30:57.132Z,4.57
2019-06-15T20:33:28.045Z,5.37
2019-06-15T20:35:59.270Z,4.63
2019-06-15T20:38:30.611Z,5.00
2019-06-15T20:41:01.971Z,4.00
2019-06-15T20:43:33.577Z,4.77
2019-06-15T20:46:07.150Z,5.40
2019-06-15T20:48:38.213Z,5.90
2019-06-15T20:51:10.435Z,5.87
2019-06-15T20:53:41.887Z,5.20
2019-06-15T20:56:13.632Z,5.03
2019-06-15T20:58:44.903Z,5.00
2019-06-15T21:01:16.493Z,4.80
2019-06-15T21:03:48.241Z,5.83
2019-06-15T21:06:19.573Z,5.90
2019-06-15T21:08:51.259Z,6.13
2019-06-15T21:11:22.845Z,5.63
2019-06-15T21:13:55.902Z,5.50
2019-06-15T21:16:27.442Z,5.97
2019-06-15T21:18:59.844Z,5.43
2019-06-15T21:21:31.092Z,6.23
2019-06-15T21:24:02.532Z,6.77
2019-06-15T21:26:34.164Z,6.70
2019-06-15T21:29:06.703Z,7.23
2019-06-15T21:31:38.507Z,6.97
2019-06-15T21:34:09.755Z,6.33
2019-06-15T21:36:41.014Z,6.33
2019-06-15T21:39:12.267Z,6.17
2019-06-15T21:41:46.118Z,6.40
2019-06-15T21:44:16.912Z,6.70
2019-06-15T21:46:48.249Z,5.63
2019-06-15T21:49:19.859Z,6.00
2019-06-15T21:51:52.311Z,6.10
2019-06-15T21:54:26.721Z,6.90
2019-06-15T21:56:57.743Z,5.80
2019-06-15T21:59:29.637Z,6.10
2019-06-15T22:02:01.490Z,7.03
2019-06-15T22:04:32.732Z,5.97
2019-06-15T22:07:06.480Z,6.30
2019-06-15T22:09:37.262Z,5.93
2019-06-15T22:12:08.980Z,6.37
2019-06-15T22:14:40.549Z,7.10
2019-06-15T22:17:12.050Z,6.00
2019-06-15T22:19:43.554Z,6.40
2019-06-15T22:22:16.446Z,7.60
2019-06-15T22:24:48.725Z,9.03
2019-06-15T22:27:20.106Z,8.97
2019-06-15T22:29:51.732Z,9.33
2019-06-15T22:32:22.966Z,9.10
2019-06-15T22:34:56.317Z,10.90
2019-06-15T22:37:27.329Z,11.07
2019-06-15T22:39:58.695Z,12.13
2019-06-15T22:42:30.312Z,13.60
2019-06-15T22:45:01.577Z,13.27
2019-06-15T22:47:32.983Z,15.77
2019-06-15T22:50:06.752Z,15.70
2019-06-15T22:52:38.943Z,14.77
2019-06-15T22:55:10.737Z,14.70
2019-06-15T22:57:42.382Z,15.13
2019-06-15T23:00:13.884Z,13.80
2019-06-15T23:02:46.092Z,13.70
2019-06-15T23:05:17.462Z,13.77
2019-06-15T23:07:48.889Z,14.43
2019-06-15T23:10:20.237Z,13.73
2019-06-15T23:12:51.774Z,13.73
2019-06-15T23:15:23.138Z,12.77
2019-06-15T23:17:57.196Z,11.70
2019-06-15T23:20:28.187Z,11.37
2019-06-15T23:22:59.399Z,11.10
2019-06-15T23:25:30.731Z,11.03
2019-06-15T23:28:02.139Z,10.27
2019-06-15T23:30:36.371Z,10.20
2019-06-15T23:33:06.883Z,9.50
2019-06-15T23:35:46.628Z,9.33
2019-06-15T23:38:18.244Z,9.53
2019-06-15T23:40:49.528Z,8.90
2019-06-15T23:43:20.909Z,8.90
2019-06-15T23:45:52.227Z,8.73
2019-06-15T23:48:23.806Z,8.60
2019-06-15T23:50:56.888Z,7.60
2019-06-15T23:53:28.282Z,7.83
2019-06-15T23:55:59.624Z,7.73
2019-06-15T23:58:31.236Z,7.50
